sensor_id;sensor_type;location;lat;lon;timestamp;P1;durP1;ratioP1;P2;durP2;ratioP2
3355;SDS011;1691;52.486;13.374;2023-04-24T00:01:59;6.07;;;5.80;;
3355;SDS011;1691;52.486;13.374;2023-04-24T00:04:27;6.07;;;5.67;;
3355;SDS011;1691;52.486;13.374;2023-04-24T00:06:54;6.63;;;6.23;;
3355;SDS011;1691;52.486;13.374;2023-04-24T00:09:23;5.63;;;5.33;;
3355;SDS011;1691;52.486;13.374;2023-04-24T00:11:50;5.57;;;5.37;;
3355;SDS011;1691;52.486;13.374;2023-04-24T00:14:17;5.80;;;5.60;;
3355;SDS011;1691;52.486;13.374;2023-04-24T00:16:44;5.83;;;5.50;;
3355;SDS011;1691;52.486;13.374;2023-04-24T00:19:11;5.47;;;5.07;;
3355;SDS011;1691;52.486;13.374;2023-04-24T00:21:39;6.20;;;5.80;;
3355;SDS011;1691;52.486;13.374;2023-04-24T00:24:07;5.60;;;5.30;;
3355;SDS011;1691;52.486;13.374;2023-04-24T00:26:37;5.43;;;5.23;;
3355;SDS011;1691;52.486;13.374;2023-04-24T00:29:04;5.30;;;5.10;;
3355;SDS011;1691;52.486;13.374;2023-04-24T00:31:31;4.43;;;4.23;;
3355;SDS011;1691;52.486;13.374;2023-04-24T00:34:01;6.40;;;5.80;;
3355;SDS011;1691;52.486;13.374;2023-04-24T00:36:29;5.00;;;4.77;;
3355;SDS011;1691;52.486;13.374;2023-04-24T00:38:57;5.80;;;5.50;;
3355;SDS011;1691;52.486;13.374;2023-04-24T00:41:24;5.90;;;5.70;;
3355;SDS011;1691;52.486;13.374;2023-04-24T00:43:52;5.30;;;5.03;;
3355;SDS011;1691;52.486;13.374;2023-04-24T00:46:19;5.50;;;5.30;;
3355;SDS011;1691;52.486;13.374;2023-04-24T00:48:47;5.63;;;5.43;;
3355;SDS011;1691;52.486;13.374;2023-04-24T00:51:14;5.40;;;5.20;;
3355;SDS011;1691;52.486;13.374;2023-04-24T00:53:41;5.20;;;5.00;;
3355;SDS011;1691;52.486;13.374;2023-04-24T00:56:08;5.73;;;5.50;;
3355;SDS011;1691;52.486;13.374;2023-04-24T00:58:36;5.93;;;5.63;;
3355;SDS011;1691;52.486;13.374;2023-04-24T01:01:03;5.73;;;5.33;;
3355;SDS011;1691;52.486;13.374;2023-04-24T01:03:33;6.00;;;5.70;;
3355;SDS011;1691;52.486;13.374;2023-04-24T01:06:04;6.10;;;5.73;;
3355;SDS011;1691;52.486;13.374;2023-04-24T01:08:31;6.07;;;5.80;;
3355;SDS011;1691;52.486;13.374;2023-04-24T01:11:01;6.17;;;5.67;;
3355;SDS011;1691;52.486;13.374;2023-04-24T01:13:31;5.50;;;5.20;;
3355;SDS011;1691;52.486;13.374;2023-04-24T01:15:59;6.20;;;5.57;;
3355;SDS011;1691;52.486;13.374;2023-04-24T01:18:27;5.30;;;5.00;;
3355;SDS011;1691;52.486;13.374;2023-04-24T01:20:57;6.07;;;5.87;;
3355;SDS011;1691;52.486;13.374;2023-04-24T01:23:26;6.70;;;5.97;;
3355;SDS011;1691;52.486;13.374;2023-04-24T01:25:53;5.67;;;5.57;;
3355;SDS011;1691;52.486;13.374;2023-04-24T01:28:21;6.00;;;5.60;;
3355;SDS011;1691;52.486;13.374;2023-04-24T01:30:48;5.30;;;4.90;;
3355;SDS011;1691;52.486;13.374;2023-04-24T01:33:15;5.73;;;5.33;;
3355;SDS011;1691;52.486;13.374;2023-04-24T01:35:43;6.00;;;5.60;;
3355;SDS011;1691;52.486;13.374;2023-04-24T01:38:10;7.43;;;6.93;;
3355;SDS011;1691;52.486;13.374;2023-04-24T01:40:38;6.73;;;6.10;;
3355;SDS011;1691;52.486;13.374;2023-04-24T01:43:05;6.30;;;5.80;;
3355;SDS011;1691;52.486;13.374;2023-04-24T01:45:32;5.53;;;5.33;;
3355;SDS011;1691;52.486;13.374;2023-04-24T01:47:59;6.20;;;5.90;;
3355;SDS011;1691;52.486;13.374;2023-04-24T01:50:27;6.33;;;6.03;;
3355;SDS011;1691;52.486;13.374;2023-04-24T01:52:54;6.30;;;5.90;;
3355;SDS011;1691;52.486;13.374;2023-04-24T01:55:21;6.70;;;6.30;;
3355;SDS011;1691;52.486;13.374;2023-04-24T01:57:48;6.17;;;5.90;;
3355;SDS011;1691;52.486;13.374;2023-04-24T02:00:16;6.67;;;6.37;;
3355;SDS011;1691;52.486;13.374;2023-04-24T02:02:43;6.90;;;6.50;;
3355;SDS011;1691;52.486;13.374;2023-04-24T02:05:13;7.90;;;7.00;;
3355;SDS011;1691;52.486;13.374;2023-04-24T02:07:41;6.83;;;6.40;;
3355;SDS011;1691;52.486;13.374;2023-04-24T02:10:08;6.23;;;5.33;;
3355;SDS011;1691;52.486;13.374;2023-04-24T02:12:35;5.77;;;5.57;;
3355;SDS011;1691;52.486;13.374;2023-04-24T02:15:03;7.17;;;5.70;;
3355;SDS011;1691;52.486;13.374;2023-04-24T02:17:30;6.00;;;5.70;;
3355;SDS011;1691;52.486;13.374;2023-04-24T02:19:57;6.57;;;6.23;;
3355;SDS011;1691;52.486;13.374;2023-04-24T02:22:24;5.60;;;5.40;;
3355;SDS011;1691;52.486;13.374;2023-04-24T02:24:51;6.70;;;6.30;;
3355;SDS011;1691;52.486;13.374;2023-04-24T02:27:18;6.33;;;5.73;;
3355;SDS011;1691;52.486;13.374;2023-04-24T02:29:45;7.03;;;6.50;;
3355;SDS011;1691;52.486;13.374;2023-04-24T02:32:12;7.77;;;6.93;;
3355;SDS011;1691;52.486;13.374;2023-04-24T02:34:41;6.27;;;5.90;;
3355;SDS011;1691;52.486;13.374;2023-04-24T02:37:08;6.77;;;6.37;;
3355;SDS011;1691;52.486;13.374;2023-04-24T02:39:36;6.63;;;6.30;;
3355;SDS011;1691;52.486;13.374;2023-04-24T02:42:03;5.97;;;5.77;;
3355;SDS011;1691;52.486;13.374;2023-04-24T02:44:30;7.13;;;6.43;;
3355;SDS011;1691;52.486;13.374;2023-04-24T02:46:57;6.63;;;6.23;;
3355;SDS011;1691;52.486;13.374;2023-04-24T02:49:23;6.13;;;5.93;;
3355;SDS011;1691;52.486;13.374;2023-04-24T02:51:50;6.67;;;6.37;;
3355;SDS011;1691;52.486;13.374;2023-04-24T02:54:17;7.10;;;6.60;;
3355;SDS011;1691;52.486;13.374;2023-04-24T02:56:44;5.50;;;5.30;;
3355;SDS011;1691;52.486;13.374;2023-04-24T02:59:11;6.97;;;6.33;;
3355;SDS011;1691;52.486;13.374;2023-04-24T03:01:38;6.80;;;6.50;;
3355;SDS011;1691;52.486;13.374;2023-04-24T03:04:05;6.97;;;6.67;;
3355;SDS011;1691;52.486;13.374;2023-04-24T03:06:33;6.43;;;5.97;;
3355;SDS011;1691;52.486;13.374;2023-04-24T03:09:01;6.70;;;6.30;;
3355;SDS011;1691;52.486;13.374;2023-04-24T03:11:29;6.07;;;5.80;;
3355;SDS011;1691;52.486;13.374;2023-04-24T03:13:56;7.03;;;6.63;;
3355;SDS011;1691;52.486;13.374;2023-04-24T03:16:23;7.00;;;6.70;;
3355;SDS011;1691;52.486;13.374;2023-04-24T03:18:50;6.00;;;5.67;;
3355;SDS011;1691;52.486;13.374;2023-04-24T03:21:18;10.43;;;6.60;;
3355;SDS011;1691;52.486;13.374;2023-04-24T03:23:45;7.17;;;6.67;;
3355;SDS011;1691;52.486;13.374;2023-04-24T03:26:12;7.13;;;6.73;;
3355;SDS011;1691;52.486;13.374;2023-04-24T03:28:39;7.20;;;6.83;;
3355;SDS011;1691;52.486;13.374;2023-04-24T03:31:06;8.57;;;7.07;;
3355;SDS011;1691;52.486;13.374;2023-04-24T03:33:33;7.10;;;6.70;;
3355;SDS011;1691;52.486;13.374;2023-04-24T03:36:00;7.47;;;6.60;;
3355;SDS011;1691;52.486;13.374;2023-04-24T03:38:27;6.93;;;6.57;;
3355;SDS011;1691;52.486;13.374;2023-04-24T03:40:53;7.00;;;6.60;;
3355;SDS011;1691;52.486;13.374;2023-04-24T03:43:20;8.43;;;7.77;;
3355;SDS011;1691;52.486;13.374;2023-04-24T03:45:47;6.57;;;5.97;;
3355;SDS011;1691;52.486;13.374;2023-04-24T03:48:14;6.97;;;6.47;;
3355;SDS011;1691;52.486;13.374;2023-04-24T03:50:41;6.60;;;6.30;;
3355;SDS011;1691;52.486;13.374;2023-04-24T03:53:08;7.03;;;6.73;;
3355;SDS011;1691;52.486;13.374;2023-04-24T03:55:35;5.40;;;5.20;;
3355;SDS011;1691;52.486;13.374;2023-04-24T03:58:02;7.37;;;6.70;;
3355;SDS011;1691;52.486;13.374;2023-04-24T04:00:29;7.57;;;5.63;;
3355;SDS011;1691;52.486;13.374;2023-04-24T04:02:57;6.30;;;6.00;;
3355;SDS011;1691;52.486;13.374;2023-04-24T04:05:25;6.00;;;5.63;;
3355;SDS011;1691;52.486;13.374;2023-04-24T04:07:52;6.33;;;6.03;;
3355;SDS011;1691;52.486;13.374;2023-04-24T04:10:19;8.50;;;6.70;;
3355;SDS011;1691;52.486;13.374;2023-04-24T04:12:46;6.13;;;5.73;;
3355;SDS011;1691;52.486;13.374;2023-04-24T04:15:13;6.07;;;5.77;;
3355;SDS011;1691;52.486;13.374;2023-04-24T04:17:40;6.43;;;5.93;;
3355;SDS011;1691;52.486;13.374;2023-04-24T04:20:07;5.57;;;5.27;;
3355;SDS011;1691;52.486;13.374;2023-04-24T04:22:38;7.07;;;5.33;;
3355;SDS011;1691;52.486;13.374;2023-04-24T04:25:07;6.83;;;6.33;;
3355;SDS011;1691;52.486;13.374;2023-04-24T04:27:34;6.60;;;6.30;;
3355;SDS011;1691;52.486;13.374;2023-04-24T04:30:02;6.00;;;5.80;;
3355;SDS011;1691;52.486;13.374;2023-04-24T04:32:33;6.73;;;6.23;;
3355;SDS011;1691;52.486;13.374;2023-04-24T04:35:01;6.23;;;5.90;;
3355;SDS011;1691;52.486;13.374;2023-04-24T04:37:31;6.20;;;5.73;;
3355;SDS011;1691;52.486;13.374;2023-04-24T04:39:59;5.93;;;5.63;;
3355;SDS011;1691;52.486;13.374;2023-04-24T04:42:27;5.57;;;5.37;;
3355;SDS011;1691;52.486;13.374;2023-04-24T04:44:55;5.20;;;5.00;;
3355;SDS011;1691;52.486;13.374;2023-04-24T04:47:23;6.30;;;5.93;;
3355;SDS011;1691;52.486;13.374;2023-04-24T04:49:51;6.70;;;6.40;;
3355;SDS011;1691;52.486;13.374;2023-04-24T04:52:18;5.33;;;5.13;;
3355;SDS011;1691;52.486;13.374;2023-04-24T04:54:45;6.40;;;5.33;;
3355;SDS011;1691;52.486;13.374;2023-04-24T04:57:12;5.07;;;4.87;;
3355;SDS011;1691;52.486;13.374;2023-04-24T04:59:39;5.10;;;4.80;;
3355;SDS011;1691;52.486;13.374;2023-04-24T05:02:07;5.17;;;4.97;;
3355;SDS011;1691;52.486;13.374;2023-04-24T05:04:35;5.27;;;4.87;;
3355;SDS011;1691;52.486;13.374;2023-04-24T05:07:02;3.93;;;3.80;;
3355;SDS011;1691;52.486;13.374;2023-04-24T05:09:29;4.13;;;3.93;;
3355;SDS011;1691;52.486;13.374;2023-04-24T05:11:56;4.43;;;4.30;;
3355;SDS011;1691;52.486;13.374;2023-04-24T05:14:23;5.97;;;4.10;;
3355;SDS011;1691;52.486;13.374;2023-04-24T05:16:50;4.70;;;3.60;;
3355;SDS011;1691;52.486;13.374;2023-04-24T05:19:17;4.43;;;4.10;;
3355;SDS011;1691;52.486;13.374;2023-04-24T05:21:44;5.33;;;4.10;;
3355;SDS011;1691;52.486;13.374;2023-04-24T05:24:11;6.60;;;4.10;;
3355;SDS011;1691;52.486;13.374;2023-04-24T05:26:38;5.93;;;4.40;;
3355;SDS011;1691;52.486;13.374;2023-04-24T05:29:05;3.50;;;3.30;;
3355;SDS011;1691;52.486;13.374;2023-04-24T05:31:32;3.50;;;3.30;;
3355;SDS011;1691;52.486;13.374;2023-04-24T05:33:59;2.70;;;2.60;;
3355;SDS011;1691;52.486;13.374;2023-04-24T05:36:26;2.90;;;2.80;;
3355;SDS011;1691;52.486;13.374;2023-04-24T05:38:54;2.70;;;2.60;;
3355;SDS011;1691;52.486;13.374;2023-04-24T05:41:21;5.30;;;2.30;;
3355;SDS011;1691;52.486;13.374;2023-04-24T05:43:48;2.17;;;2.07;;
3355;SDS011;1691;52.486;13.374;2023-04-24T05:46:15;6.80;;;2.17;;
3355;SDS011;1691;52.486;13.374;2023-04-24T05:48:42;2.07;;;1.93;;
3355;SDS011;1691;52.486;13.374;2023-04-24T05:51:09;5.10;;;2.10;;
3355;SDS011;1691;52.486;13.374;2023-04-24T05:53:36;2.27;;;2.07;;
3355;SDS011;1691;52.486;13.374;2023-04-24T05:56:03;3.27;;;2.97;;
3355;SDS011;1691;52.486;13.374;2023-04-24T05:58:30;3.53;;;1.90;;
3355;SDS011;1691;52.486;13.374;2023-04-24T06:01:05;4.57;;;1.80;;
3355;SDS011;1691;52.486;13.374;2023-04-24T06:03:32;3.83;;;1.60;;
3355;SDS011;1691;52.486;13.374;2023-04-24T06:06:00;1.50;;;1.40;;
3355;SDS011;1691;52.486;13.374;2023-04-24T06:08:27;1.53;;;1.43;;
3355;SDS011;1691;52.486;13.374;2023-04-24T06:10:53;14.10;;;1.73;;
3355;SDS011;1691;52.486;13.374;2023-04-24T06:13:20;4.23;;;4.03;;
3355;SDS011;1691;52.486;13.374;2023-04-24T06:15:47;4.47;;;4.17;;
3355;SDS011;1691;52.486;13.374;2023-04-24T06:18:14;8.90;;;7.30;;
3355;SDS011;1691;52.486;13.374;2023-04-24T06:20:41;6.50;;;5.80;;
3355;SDS011;1691;52.486;13.374;2023-04-24T06:23:08;12.33;;;9.80;;
3355;SDS011;1691;52.486;13.374;2023-04-24T06:25:35;3.00;;;2.90;;
3355;SDS011;1691;52.486;13.374;2023-04-24T06:28:02;2.13;;;1.53;;
3355;SDS011;1691;52.486;13.374;2023-04-24T06:30:29;2.47;;;1.10;;
3355;SDS011;1691;52.486;13.374;2023-04-24T06:32:56;2.10;;;1.43;;
3355;SDS011;1691;52.486;13.374;2023-04-24T06:35:38;1.43;;;1.33;;
3355;SDS011;1691;52.486;13.374;2023-04-24T06:38:05;2.90;;;1.40;;
3355;SDS011;1691;52.486;13.374;2023-04-24T06:42:59;2.10;;;1.50;;
3355;SDS011;1691;52.486;13.374;2023-04-24T06:45:29;3.20;;;1.07;;
3355;SDS011;1691;52.486;13.374;2023-04-24T06:47:56;4.40;;;1.07;;
3355;SDS011;1691;52.486;13.374;2023-04-24T06:50:23;0.87;;;0.70;;
3355;SDS011;1691;52.486;13.374;2023-04-24T06:52:51;0.70;;;0.60;;
3355;SDS011;1691;52.486;13.374;2023-04-24T06:55:18;3.53;;;0.80;;
3355;SDS011;1691;52.486;13.374;2023-04-24T06:57:45;0.90;;;0.70;;
3355;SDS011;1691;52.486;13.374;2023-04-24T07:00:12;4.30;;;0.90;;
3355;SDS011;1691;52.486;13.374;2023-04-24T07:02:39;2.40;;;0.90;;
3355;SDS011;1691;52.486;13.374;2023-04-24T07:05:07;2.17;;;1.47;;
3355;SDS011;1691;52.486;13.374;2023-04-24T07:07:34;5.33;;;0.90;;
3355;SDS011;1691;52.486;13.374;2023-04-24T07:10:04;6.93;;;6.43;;
3355;SDS011;1691;52.486;13.374;2023-04-24T07:12:32;22.40;;;15.43;;
3355;SDS011;1691;52.486;13.374;2023-04-24T07:14:59;10.23;;;1.50;;
3355;SDS011;1691;52.486;13.374;2023-04-24T07:17:27;1.30;;;0.90;;
3355;SDS011;1691;52.486;13.374;2023-04-24T07:19:54;1.10;;;0.70;;
3355;SDS011;1691;52.486;13.374;2023-04-24T07:22:20;3.43;;;0.50;;
3355;SDS011;1691;52.486;13.374;2023-04-24T07:24:48;1.23;;;0.60;;
3355;SDS011;1691;52.486;13.374;2023-04-24T07:27:15;0.70;;;0.60;;
3355;SDS011;1691;52.486;13.374;2023-04-24T07:29:42;0.70;;;0.60;;
3355;SDS011;1691;52.486;13.374;2023-04-24T07:32:10;2.80;;;0.90;;
3355;SDS011;1691;52.486;13.374;2023-04-24T07:34:37;0.80;;;0.80;;
3355;SDS011;1691;52.486;13.374;2023-04-24T07:37:04;0.80;;;0.70;;
3355;SDS011;1691;52.486;13.374;2023-04-24T07:39:31;0.80;;;0.60;;
3355;SDS011;1691;52.486;13.374;2023-04-24T07:41:58;0.70;;;0.60;;
3355;SDS011;1691;52.486;13.374;2023-04-24T07:44:25;1.57;;;0.70;;
3355;SDS011;1691;52.486;13.374;2023-04-24T07:46:52;2.90;;;0.90;;
3355;SDS011;1691;52.486;13.374;2023-04-24T07:49:20;1.37;;;0.60;;
3355;SDS011;1691;52.486;13.374;2023-04-24T07:51:47;0.80;;;0.80;;
3355;SDS011;1691;52.486;13.374;2023-04-24T07:54:15;2.20;;;0.70;;
3355;SDS011;1691;52.486;13.374;2023-04-24T07:56:42;2.10;;;0.50;;
3355;SDS011;1691;52.486;13.374;2023-04-24T07:59:10;0.70;;;0.50;;
3355;SDS011;1691;52.486;13.374;2023-04-24T08:01:37;2.97;;;0.90;;
3355;SDS011;1691;52.486;13.374;2023-04-24T08:04:04;4.23;;;1.90;;
3355;SDS011;1691;52.486;13.374;2023-04-24T08:06:32;1.03;;;0.93;;
3355;SDS011;1691;52.486;13.374;2023-04-24T08:08:59;18.40;;;1.20;;
3355;SDS011;1691;52.486;13.374;2023-04-24T08:11:27;46.73;;;1.90;;
3355;SDS011;1691;52.486;13.374;2023-04-24T08:13:54;0.73;;;0.60;;
3355;SDS011;1691;52.486;13.374;2023-04-24T08:16:21;4.40;;;2.40;;
3355;SDS011;1691;52.486;13.374;2023-04-24T08:18:50;0.70;;;0.50;;
3355;SDS011;1691;52.486;13.374;2023-04-24T08:21:18;2.20;;;1.93;;
3355;SDS011;1691;52.486;13.374;2023-04-24T08:23:46;1.83;;;1.73;;
3355;SDS011;1691;52.486;13.374;2023-04-24T08:26:13;5.43;;;1.17;;
3355;SDS011;1691;52.486;13.374;2023-04-24T08:28:40;1.03;;;0.93;;
3355;SDS011;1691;52.486;13.374;2023-04-24T08:31:08;4.63;;;2.53;;
3355;SDS011;1691;52.486;13.374;2023-04-24T08:33:35;0.80;;;0.60;;
3355;SDS011;1691;52.486;13.374;2023-04-24T08:36:03;1.00;;;0.60;;
3355;SDS011;1691;52.486;13.374;2023-04-24T08:38:31;0.70;;;0.50;;
3355;SDS011;1691;52.486;13.374;2023-04-24T08:41:00;4.20;;;1.10;;
3355;SDS011;1691;52.486;13.374;2023-04-24T08:43:27;2.60;;;0.57;;
3355;SDS011;1691;52.486;13.374;2023-04-24T08:45:55;0.80;;;0.60;;
3355;SDS011;1691;52.486;13.374;2023-04-24T08:48:23;5.27;;;0.80;;
3355;SDS011;1691;52.486;13.374;2023-04-24T08:50:57;1.10;;;0.70;;
3355;SDS011;1691;52.486;13.374;2023-04-24T08:53:25;0.70;;;0.50;;
3355;SDS011;1691;52.486;13.374;2023-04-24T08:55:54;2.97;;;2.70;;
3355;SDS011;1691;52.486;13.374;2023-04-24T08:58:24;2.50;;;1.93;;
3355;SDS011;1691;52.486;13.374;2023-04-24T09:00:55;3.30;;;2.70;;
3355;SDS011;1691;52.486;13.374;2023-04-24T09:03:24;0.80;;;0.60;;
3355;SDS011;1691;52.486;13.374;2023-04-24T09:05:53;0.90;;;0.80;;
3355;SDS011;1691;52.486;13.374;2023-04-24T09:08:22;1.97;;;0.73;;
3355;SDS011;1691;52.486;13.374;2023-04-24T09:10:52;1.97;;;1.40;;
3355;SDS011;1691;52.486;13.374;2023-04-24T09:13:22;2.17;;;0.93;;
3355;SDS011;1691;52.486;13.374;2023-04-24T09:15:49;1.10;;;0.70;;
3355;SDS011;1691;52.486;13.374;2023-04-24T09:18:16;2.20;;;0.80;;
3355;SDS011;1691;52.486;13.374;2023-04-24T09:21:03;1.73;;;0.90;;
3355;SDS011;1691;52.486;13.374;2023-04-24T09:23:33;0.97;;;0.90;;
3355;SDS011;1691;52.486;13.374;2023-04-24T09:26:01;0.80;;;0.70;;
3355;SDS011;1691;52.486;13.374;2023-04-24T09:28:32;0.80;;;0.80;;
3355;SDS011;1691;52.486;13.374;2023-04-24T09:33:57;4.07;;;0.83;;
3355;SDS011;1691;52.486;13.374;2023-04-24T09:39:07;2.13;;;0.90;;
3355;SDS011;1691;52.486;13.374;2023-04-24T09:41:44;1.33;;;1.03;;
3355;SDS011;1691;52.486;13.374;2023-04-24T09:44:22;0.90;;;0.70;;
3355;SDS011;1691;52.486;13.374;2023-04-24T09:49:24;5.07;;;0.73;;
3355;SDS011;1691;52.486;13.374;2023-04-24T09:52:09;1.47;;;0.70;;
3355;SDS011;1691;52.486;13.374;2023-04-24T09:54:37;0.90;;;0.80;;
3355;SDS011;1691;52.486;13.374;2023-04-24T09:57:09;2.00;;;1.90;;
3355;SDS011;1691;52.486;13.374;2023-04-24T09:59:41;6.30;;;5.73;;
3355;SDS011;1691;52.486;13.374;2023-04-24T10:02:18;1.10;;;1.00;;
3355;SDS011;1691;52.486;13.374;2023-04-24T10:04:56;0.83;;;0.70;;
3355;SDS011;1691;52.486;13.374;2023-04-24T10:07:26;1.00;;;0.83;;
3355;SDS011;1691;52.486;13.374;2023-04-24T10:09:53;4.17;;;1.20;;
3355;SDS011;1691;52.486;13.374;2023-04-24T10:12:21;5.50;;;1.00;;
3355;SDS011;1691;52.486;13.374;2023-04-24T10:14:49;0.70;;;0.50;;
3355;SDS011;1691;52.486;13.374;2023-04-24T10:17:16;0.70;;;0.60;;
3355;SDS011;1691;52.486;13.374;2023-04-24T10:19:46;0.93;;;0.73;;
3355;SDS011;1691;52.486;13.374;2023-04-24T10:22:14;1.57;;;0.90;;
3355;SDS011;1691;52.486;13.374;2023-04-24T10:24:43;0.73;;;0.50;;
3355;SDS011;1691;52.486;13.374;2023-04-24T10:27:11;0.90;;;0.63;;
3355;SDS011;1691;52.486;13.374;2023-04-24T10:29:41;6.90;;;0.80;;
3355;SDS011;1691;52.486;13.374;2023-04-24T10:32:11;1.20;;;0.70;;
3355;SDS011;1691;52.486;13.374;2023-04-24T10:34:38;1.23;;;0.90;;
3355;SDS011;1691;52.486;13.374;2023-04-24T10:37:05;2.30;;;0.80;;
3355;SDS011;1691;52.486;13.374;2023-04-24T10:39:32;3.03;;;0.77;;
3355;SDS011;1691;52.486;13.374;2023-04-24T10:41:59;4.10;;;0.80;;
3355;SDS011;1691;52.486;13.374;2023-04-24T10:44:27;0.80;;;0.80;;
3355;SDS011;1691;52.486;13.374;2023-04-24T10:47:03;1.73;;;0.90;;
3355;SDS011;1691;52.486;13.374;2023-04-24T10:49:31;12.43;;;0.97;;
3355;SDS011;1691;52.486;13.374;2023-04-24T10:52:02;2.20;;;0.77;;
3355;SDS011;1691;52.486;13.374;2023-04-24T10:54:44;1.60;;;1.10;;
3355;SDS011;1691;52.486;13.374;2023-04-24T11:02:45;14.40;;;1.00;;
3355;SDS011;1691;52.486;13.374;2023-04-24T11:05:19;3.00;;;1.20;;
3355;SDS011;1691;52.486;13.374;2023-04-24T11:10:45;4.07;;;0.60;;
3355;SDS011;1691;52.486;13.374;2023-04-24T11:13:24;7.37;;;0.97;;
3355;SDS011;1691;52.486;13.374;2023-04-24T11:16:14;3.37;;;0.80;;
3355;SDS011;1691;52.486;13.374;2023-04-24T11:19:06;1.60;;;1.50;;
3355;SDS011;1691;52.486;13.374;2023-04-24T11:21:54;1.30;;;0.87;;
3355;SDS011;1691;52.486;13.374;2023-04-24T11:27:14;1.47;;;0.70;;
3355;SDS011;1691;52.486;13.374;2023-04-24T11:29:49;1.30;;;0.80;;
3355;SDS011;1691;52.486;13.374;2023-04-24T11:32:24;0.90;;;0.70;;
3355;SDS011;1691;52.486;13.374;2023-04-24T11:35:01;0.80;;;0.80;;
3355;SDS011;1691;52.486;13.374;2023-04-24T11:37:51;2.00;;;1.23;;
3355;SDS011;1691;52.486;13.374;2023-04-24T11:40:23;1.70;;;0.80;;
3355;SDS011;1691;52.486;13.374;2023-04-24T11:42:52;2.80;;;0.80;;
3355;SDS011;1691;52.486;13.374;2023-04-24T11:45:23;7.73;;;1.10;;
3355;SDS011;1691;52.486;13.374;2023-04-24T11:47:53;1.30;;;0.83;;
3355;SDS011;1691;52.486;13.374;2023-04-24T11:50:24;1.00;;;0.90;;
3355;SDS011;1691;52.486;13.374;2023-04-24T11:52:54;1.17;;;0.90;;
3355;SDS011;1691;52.486;13.374;2023-04-24T11:57:49;1.00;;;0.90;;
3355;SDS011;1691;52.486;13.374;2023-04-24T12:00:20;1.27;;;1.07;;
3355;SDS011;1691;52.486;13.374;2023-04-24T12:03:05;7.33;;;1.10;;
3355;SDS011;1691;52.486;13.374;2023-04-24T12:05:34;1.70;;;1.03;;
3355;SDS011;1691;52.486;13.374;2023-04-24T12:08:02;1.30;;;0.90;;
3355;SDS011;1691;52.486;13.374;2023-04-24T12:10:30;2.70;;;1.20;;
3355;SDS011;1691;52.486;13.374;2023-04-24T12:12:59;1.10;;;1.00;;
3355;SDS011;1691;52.486;13.374;2023-04-24T12:15:26;1.03;;;0.80;;
3355;SDS011;1691;52.486;13.374;2023-04-24T12:17:54;1.00;;;0.80;;
3355;SDS011;1691;52.486;13.374;2023-04-24T12:20:27;2.40;;;0.90;;
3355;SDS011;1691;52.486;13.374;2023-04-24T12:22:57;3.43;;;1.30;;
3355;SDS011;1691;52.486;13.374;2023-04-24T12:25:27;1.53;;;0.90;;
3355;SDS011;1691;52.486;13.374;2023-04-24T12:30:33;0.80;;;0.70;;
3355;SDS011;1691;52.486;13.374;2023-04-24T12:33:11;7.33;;;0.70;;
3355;SDS011;1691;52.486;13.374;2023-04-24T12:35:39;2.50;;;0.73;;
3355;SDS011;1691;52.486;13.374;2023-04-24T12:38:08;2.83;;;0.60;;
3355;SDS011;1691;52.486;13.374;2023-04-24T12:40:39;1.73;;;0.70;;
3355;SDS011;1691;52.486;13.374;2023-04-24T12:43:14;0.77;;;0.77;;
3355;SDS011;1691;52.486;13.374;2023-04-24T12:45:46;2.20;;;0.87;;
3355;SDS011;1691;52.486;13.374;2023-04-24T12:48:14;3.63;;;0.87;;
3355;SDS011;1691;52.486;13.374;2023-04-24T12:50:42;0.70;;;0.60;;
3355;SDS011;1691;52.486;13.374;2023-04-24T12:53:12;1.20;;;0.70;;
3355;SDS011;1691;52.486;13.374;2023-04-24T12:55:40;3.53;;;1.07;;
3355;SDS011;1691;52.486;13.374;2023-04-24T12:58:07;1.30;;;0.70;;
3355;SDS011;1691;52.486;13.374;2023-04-24T13:00:34;0.90;;;0.70;;
3355;SDS011;1691;52.486;13.374;2023-04-24T13:03:02;0.90;;;0.70;;
3355;SDS011;1691;52.486;13.374;2023-04-24T13:05:30;1.57;;;0.90;;
3355;SDS011;1691;52.486;13.374;2023-04-24T13:07:57;0.90;;;0.60;;
3355;SDS011;1691;52.486;13.374;2023-04-24T13:10:24;3.90;;;0.67;;
3355;SDS011;1691;52.486;13.374;2023-04-24T13:12:51;2.83;;;0.60;;
3355;SDS011;1691;52.486;13.374;2023-04-24T13:15:18;4.00;;;0.70;;
3355;SDS011;1691;52.486;13.374;2023-04-24T13:17:45;0.90;;;0.70;;
3355;SDS011;1691;52.486;13.374;2023-04-24T13:20:12;0.80;;;0.60;;
3355;SDS011;1691;52.486;13.374;2023-04-24T13:22:39;1.73;;;0.63;;
3355;SDS011;1691;52.486;13.374;2023-04-24T13:25:06;6.20;;;0.77;;
3355;SDS011;1691;52.486;13.374;2023-04-24T13:27:33;0.80;;;0.70;;
3355;SDS011;1691;52.486;13.374;2023-04-24T13:30:01;0.90;;;0.67;;
3355;SDS011;1691;52.486;13.374;2023-04-24T13:32:28;2.10;;;0.73;;
3355;SDS011;1691;52.486;13.374;2023-04-24T13:34:56;4.20;;;0.70;;
3355;SDS011;1691;52.486;13.374;2023-04-24T13:37:23;5.00;;;1.00;;
3355;SDS011;1691;52.486;13.374;2023-04-24T13:39:49;7.13;;;0.80;;
3355;SDS011;1691;52.486;13.374;2023-04-24T13:42:17;0.80;;;0.63;;
3355;SDS011;1691;52.486;13.374;2023-04-24T13:44:46;0.80;;;0.80;;
3355;SDS011;1691;52.486;13.374;2023-04-24T13:47:13;1.67;;;0.70;;
3355;SDS011;1691;52.486;13.374;2023-04-24T13:49:39;0.90;;;0.90;;
3355;SDS011;1691;52.486;13.374;2023-04-24T13:52:07;1.10;;;0.60;;
3355;SDS011;1691;52.486;13.374;2023-04-24T13:54:34;2.10;;;0.87;;
3355;SDS011;1691;52.486;13.374;2023-04-24T13:57:01;6.27;;;0.90;;
3355;SDS011;1691;52.486;13.374;2023-04-24T13:59:29;1.40;;;0.80;;
3355;SDS011;1691;52.486;13.374;2023-04-24T14:01:56;21.13;;;1.20;;
3355;SDS011;1691;52.486;13.374;2023-04-24T14:04:23;3.27;;;0.80;;
3355;SDS011;1691;52.486;13.374;2023-04-24T14:06:51;2.10;;;0.80;;
3355;SDS011;1691;52.486;13.374;2023-04-24T14:09:18;1.20;;;1.10;;
3355;SDS011;1691;52.486;13.374;2023-04-24T14:11:45;16.13;;;7.37;;
3355;SDS011;1691;52.486;13.374;2023-04-24T14:14:12;22.67;;;15.23;;
3355;SDS011;1691;52.486;13.374;2023-04-24T14:16:38;2.10;;;0.70;;
3355;SDS011;1691;52.486;13.374;2023-04-24T14:19:06;4.23;;;0.87;;
3355;SDS011;1691;52.486;13.374;2023-04-24T14:21:33;1.10;;;0.83;;
3355;SDS011;1691;52.486;13.374;2023-04-24T14:24:00;1.20;;;0.60;;
3355;SDS011;1691;52.486;13.374;2023-04-24T14:26:27;1.10;;;0.60;;
3355;SDS011;1691;52.486;13.374;2023-04-24T14:28:54;0.80;;;0.77;;
3355;SDS011;1691;52.486;13.374;2023-04-24T14:31:36;4.43;;;1.10;;
3355;SDS011;1691;52.486;13.374;2023-04-24T14:34:03;0.80;;;0.80;;
3355;SDS011;1691;52.486;13.374;2023-04-24T14:36:31;1.07;;;0.97;;
3355;SDS011;1691;52.486;13.374;2023-04-24T14:38:57;4.80;;;1.10;;
3355;SDS011;1691;52.486;13.374;2023-04-24T14:41:24;1.17;;;0.73;;
3355;SDS011;1691;52.486;13.374;2023-04-24T14:43:51;6.00;;;1.33;;
3355;SDS011;1691;52.486;13.374;2023-04-24T14:46:18;2.87;;;0.77;;
3355;SDS011;1691;52.486;13.374;2023-04-24T14:48:46;1.70;;;0.83;;
3355;SDS011;1691;52.486;13.374;2023-04-24T14:51:13;5.67;;;1.00;;
3355;SDS011;1691;52.486;13.374;2023-04-24T14:53:40;2.40;;;1.10;;
3355;SDS011;1691;52.486;13.374;2023-04-24T14:56:07;4.87;;;1.87;;
3355;SDS011;1691;52.486;13.374;2023-04-24T14:58:34;4.67;;;3.83;;
3355;SDS011;1691;52.486;13.374;2023-04-24T15:01:01;1.33;;;1.23;;
3355;SDS011;1691;52.486;13.374;2023-04-24T15:03:28;4.10;;;1.27;;
3355;SDS011;1691;52.486;13.374;2023-04-24T15:05:56;1.67;;;1.10;;
3355;SDS011;1691;52.486;13.374;2023-04-24T15:08:23;1.87;;;1.20;;
3355;SDS011;1691;52.486;13.374;2023-04-24T15:10:50;8.93;;;0.90;;
3355;SDS011;1691;52.486;13.374;2023-04-24T15:13:17;4.60;;;1.00;;
3355;SDS011;1691;52.486;13.374;2023-04-24T15:15:48;3.00;;;1.00;;
3355;SDS011;1691;52.486;13.374;2023-04-24T15:18:15;1.60;;;1.50;;
3355;SDS011;1691;52.486;13.374;2023-04-24T15:20:42;0.97;;;0.97;;
3355;SDS011;1691;52.486;13.374;2023-04-24T15:23:09;3.57;;;1.10;;
3355;SDS011;1691;52.486;13.374;2023-04-24T15:25:36;4.90;;;1.07;;
3355;SDS011;1691;52.486;13.374;2023-04-24T15:28:04;1.00;;;0.80;;
3355;SDS011;1691;52.486;13.374;2023-04-24T15:30:32;6.17;;;1.10;;
3355;SDS011;1691;52.486;13.374;2023-04-24T15:32:59;2.83;;;1.00;;
3355;SDS011;1691;52.486;13.374;2023-04-24T15:35:27;1.40;;;1.30;;